createdAt,value
2019-03-09T21:39:15.938Z,21.37
2019-03-09T21:41:25.591Z,21.48
2019-03-09T21:42:25.527Z,21.55
2019-03-09T21:43:25.487Z,21.67
2019-03-09T21:44:25.456Z,21.91
2019-03-09T21:45:25.395Z,22.00
2019-03-09T21:46:25.360Z,22.20
2019-03-09T21:47:25.331Z,22.41
2019-03-09T21:48:25.242Z,22.48
2019-03-09T21:49:25.191Z,22.69
2019-03-09T21:50:25.164Z,22.75
2019-03-09T21:51:25.099Z,22.83
2019-03-09T21:52:25.094Z,22.93
2019-03-09T21:53:24.967Z,23.00
2019-03-09T21:54:24.895Z,23.02
2019-03-09T21:55:24.983Z,23.08
2019-03-09T21:56:24.798Z,23.18
2019-03-09T21:57:24.698Z,23.21
2019-03-09T21:58:24.638Z,23.23
2019-03-09T21:59:24.697Z,23.25
2019-03-09T22:00:24.608Z,23.36
2019-03-09T22:01:24.445Z,23.36
2019-03-09T22:02:24.372Z,23.44
2019-03-09T22:03:24.306Z,23.41
2019-03-09T22:04:24.245Z,23.46
2019-03-09T22:05:24.185Z,23.55
2019-03-09T22:06:24.130Z,23.58
2019-03-09T22:07:24.120Z,23.56
2019-03-09T22:08:23.978Z,23.62
2019-03-09T22:09:23.954Z,23.63
2019-03-09T22:10:23.858Z,23.66
2019-03-09T22:11:23.787Z,23.71
2019-03-09T22:12:23.735Z,23.71
2019-03-09T22:13:23.660Z,23.71
2019-03-09T22:14:23.589Z,23.69
2019-03-09T22:15:23.530Z,23.74
2019-03-09T22:16:23.483Z,23.80
2019-03-09T22:17:23.408Z,23.78
2019-03-09T22:18:23.340Z,23.76
2019-03-09T22:19:23.278Z,23.83
2019-03-09T22:20:23.213Z,23.81
2019-03-09T22:21:23.167Z,23.81
2019-03-09T22:22:23.099Z,23.84
2019-03-09T22:23:23.107Z,23.87
2019-03-09T22:24:23.079Z,23.84
2019-03-09T22:25:22.946Z,23.84
2019-03-09T22:26:22.895Z,23.91
2019-03-09T22:27:22.938Z,23.84
2019-03-09T22:28:22.664Z,23.87
2019-03-09T22:29:22.617Z,23.87
2019-03-09T22:30:22.514Z,23.88
2019-03-09T22:31:29.456Z,23.84
2019-03-09T22:32:22.375Z,23.78
2019-03-09T22:33:22.278Z,23.80
2019-03-09T22:34:22.207Z,23.84
2019-03-09T22:35:22.133Z,23.86
2019-03-09T22:36:22.060Z,23.81
2019-03-09T22:37:22.001Z,23.80
2019-03-09T22:38:21.912Z,23.86
2019-03-09T22:39:21.840Z,23.84
2019-03-09T22:40:21.773Z,23.95
2019-03-09T22:41:21.696Z,23.95
2019-03-09T22:42:21.639Z,23.96
2019-03-09T22:43:21.548Z,23.95
2019-03-09T22:44:21.469Z,23.95
2019-03-09T22:45:21.393Z,23.95
2019-03-09T22:46:21.323Z,23.91
2019-03-09T22:47:21.247Z,23.98
2019-03-09T22:48:21.179Z,23.95
2019-03-09T22:49:21.101Z,23.91
2019-03-09T22:50:21.028Z,23.93
2019-03-09T22:51:20.952Z,23.93
2019-03-09T22:52:20.894Z,23.95
2019-03-09T22:53:20.817Z,23.93
2019-03-09T22:54:20.744Z,23.93
2019-03-09T22:55:20.657Z,24.01
2019-03-09T22:56:20.579Z,24.01
2019-03-09T22:57:20.510Z,23.95
2019-03-09T22:58:20.434Z,23.99
2019-03-09T22:59:20.378Z,23.95
2019-03-09T23:00:20.301Z,23.93
2019-03-09T23:01:20.227Z,23.95
2019-03-09T23:02:20.163Z,23.93
2019-03-09T23:03:20.069Z,23.96
2019-03-09T23:04:20.015Z,23.93
2019-03-09T23:05:19.918Z,24.02
2019-03-09T23:06:19.841Z,24.02
2019-03-09T23:07:19.767Z,23.96
2019-03-09T23:08:19.687Z,23.92
2019-03-09T23:09:19.627Z,23.95
2019-03-09T23:10:19.539Z,23.99
2019-03-09T23:11:19.466Z,24.02
2019-03-09T23:12:19.389Z,24.02
2019-03-09T23:13:19.312Z,23.99
2019-03-09T23:14:19.251Z,23.96
2019-03-09T23:15:19.158Z,23.92
2019-03-09T23:16:19.085Z,24.02
2019-03-09T23:17:19.010Z,23.98
2019-03-09T23:18:18.930Z,23.98
2019-03-09T23:19:18.873Z,24.02
2019-03-09T23:20:18.794Z,23.95
2019-03-09T23:21:18.716Z,23.92
2019-03-09T23:22:18.646Z,23.95
2019-03-09T23:23:18.573Z,23.93
2019-03-09T23:24:18.516Z,23.98
2019-03-09T23:25:18.424Z,23.95
2019-03-09T23:26:18.354Z,23.96
2019-03-09T23:27:18.278Z,23.95
2019-03-09T23:28:18.207Z,23.95
2019-03-09T23:29:18.133Z,23.96
2019-03-09T23:30:18.074Z,23.93
2019-03-09T23:31:17.982Z,23.96
2019-03-09T23:32:17.967Z,23.88
2019-03-09T23:33:17.830Z,23.95
2019-03-09T23:34:17.768Z,23.98
2019-03-09T23:35:17.705Z,24.02
2019-03-09T23:36:17.610Z,23.99
2019-03-09T23:37:17.555Z,23.92
2019-03-09T23:38:17.476Z,23.99
2019-03-09T23:39:17.392Z,23.95
2019-03-09T23:40:17.324Z,24.01
2019-03-09T23:41:17.254Z,24.05
2019-03-09T23:42:17.200Z,24.06
2019-03-09T23:43:17.106Z,24.02
2019-03-09T23:44:17.035Z,23.98
2019-03-09T23:45:16.949Z,23.96
2019-03-09T23:46:16.879Z,23.95
2019-03-09T23:47:16.818Z,24.02
2019-03-09T23:48:16.731Z,23.99
2019-03-09T23:49:16.661Z,23.96
2019-03-09T23:50:16.585Z,24.02
2019-03-09T23:51:16.504Z,24.01
2019-03-09T23:52:16.449Z,23.99
2019-03-09T23:53:16.367Z,24.01
2019-03-09T23:54:16.291Z,24.01
2019-03-09T23:55:21.933Z,23.99
2019-03-09T23:56:17.144Z,23.95
2019-03-09T23:57:16.084Z,24.01
2019-03-09T23:58:16.011Z,24.01
2019-03-09T23:59:15.924Z,24.02
